AirNav   Air Wisconsin Up To $57,000 Bonus
 
 466 users online  

SC44 El Porvenir Airpark
Boykin, South Carolina, USA

GOING TO BOYKIN?


FAA INFORMATION EFFECTIVE 03 NOVEMBER 2022

Location

FAA Identifier: SC44
Lat/Long: 34-07-43.5490N 080-32-50.2910W
34-07.725817N 080-32.838183W
34.1287636,-80.5473031
(estimated)
Elevation: 250 ft. / 76.2 m (surveyed)
Variation: 05W (1985)
From city: 2 miles NE of BOYKIN, SC
Time zone: UTC -5 (UTC -4 during Daylight Saving Time)
Zip code: 29128

Airport Operations

Airport use: Private use. Permission required prior to landing
Activation date: 12/1979
Control tower: no
ARTCC: JACKSONVILLE CENTER
FSS: ANDERSON FLIGHT SERVICE STATION
Attendance: CONTINUOUS
Wind indicator: no
Segmented circle: no

Airport Communications

WX AWOS-3 at CDN (9 nm N): 119.975 (803-424-1979)
WX AWOS-3 at SMS (12 nm SE): 118.075 (803-469-6750)

Nearby radio navigation aids

VOR radial/distance  VOR name  Freq  Var
MMTr054/17.7MC ENTIRE VORTAC113.2008W
CAEr059/30.0COLUMBIA VORTAC114.7002W
CTFr206/34.1CHESTERFIELD VOR/DME114.5503W
VANr359/39.5VANCE VORTAC110.4006W

 
NDB name  Hdg/Dist  Freq  Var  ID
SUMTER319/12.525207WSMS ... -- ...
HARTSVILLE239/27.034107WHVS .... ...- ...
MANNING338/36.638106WMNI -- -. ..
DARLINGTON246/37.824506WUDG ..- -.. --.
LANCASTER164/38.840007WLKR .-.. -.- .-.

Airport Services

Runway Information

Runway 8/26

Dimensions: 3000 x 150 ft. / 914 x 46 m
Surface: turf
RUNWAY 8  RUNWAY 26
Traffic pattern: leftleft

Airport Ownership and Management from official FAA records

Ownership: Privately-owned
Owner: SANTOS PANTOJA
99 LANORIA LANE
REMBERT, SC 29128
Phone 803-729-3949
Manager: SANTOS PANTOJA
99 LANORIA LANE
REMBERT, SC 29128
Phone 803-729-3949

Airport Operational Statistics

Aircraft based on the field: 1
Single engine airplanes: 1
    

Additional Remarks

FOR CD CTC SHAW APCH AT 803-895-4884, WHEN APCH CLSD CTC JACKSONVILLE ARTCC AT 904-845-1592.

Instrument Procedures

There are no published instrument procedures at SC44.

Some nearby airports with instrument procedures:

KCDN - Woodward Field Airport (9 nm N)
KSSC - Shaw Air Force Base (10 nm S)
KSMS - Sumter Airport (12 nm SE)
KMMT - Mc Entire Joint National Guard Base (18 nm SW)
KCUB - Jim Hamilton L B Owens Airport (24 nm SW)
 
Loc | Ops | Rwys | IFR | FBO | Links
Com | Nav | Svcs | Stats | Notes
Area around SC44 (El Porvenir Airpark)
 
Road maps at: MapQuest Bing Google
 
Aerial photo
No photo
 
Sectional chart

 
Airport distance calculator
Flying to El Porvenir Airpark? Find the distance to fly.

From to SC44

Sunrise and sunset
Times for 29-Nov-2022
 Local
(UTC-5)
 Zulu
(UTC)
Morning civil twilight06:4211:42
Sunrise07:0912:09
Sunset17:1222:12
Evening civil twilight17:3922:39

Current date and time
Zulu (UTC)  29-Nov-2022 08:08:47
Local (UTC-5)  29-Nov-2022 03:08:47
 
METAR
KCDN 
9nm N 
290755Z AUTO 00000KT 10SM CLR 08/05 A3013 RMK AO2
KSSC 
11nm S 
290755Z AUTO 03007KT 10SM CLR 07/05 A3011 RMK AO2 SLP197 T00690050 $
KSMS 
12nm SE 
290735Z AUTO 00000KT 10SM CLR 06/06 A3013 RMK AO2
KMMT 
17nm SW 
290755Z AUTO 07003KT 10SM CLR 06/06 A3009 RMK AO2 SLP192 T00630062 $
TAF
KSSC 
11nm S 
290000Z 2900/3006 30004KT 9999 SCT030 QNH3002INS BECMG 2909/2910 06005KT 9999 FEW035 QNH3011INS BECMG 2916/2917 10006KT 9999 SKC QNH3024INS BECMG 3000/3001 11005KT 9999 BKN025 QNH3016INS TX19/2920Z TN09/2911Z
KMMT 
17nm SW 
282300Z 2823/3005 VRB06KT 9999 BKN030 QNH2994INS TX20/2923Z TN08/2912Z
NOTAMs
Click for the latest NOTAMs
NOTAMs are issued by the DoD/FAA and will open in a separate window not controlled by AirNav.

 

 
 

Would you like to see your business listed on this page?

 If your business provides an interesting product or service to pilots, flight crews, aircraft, or users of the El Porvenir Airpark, you should consider listing it here.  To start the listing process, click on the button below
 
Add a business
 

Other Pages about El Porvenir Airpark

Update a link
 
Copyright © AirNav, LLC. All rights reserved. Privacy Policy  Contact